Time;durP1;ratioP1;P1;durP2;ratioP2;P2;SDS_P1;SDS_P2;PMS_P1;PMS_P2;Temp;Humidity;BMP_temperature;BMP_pressure;BME280_temperature;BME280_humidity;BME280_pressure;Samples;Min_cycle;Max_cycle;Signal;HPM_P1;HPM_P2
2023/03/02 00:01:49;;;;;;;37.77;18.20;;;;;;;-1.85;100.00;98697.16;4937029;28;20958;-62
2023/03/02 00:04:20;;;;;;;34.17;17.33;;;;;;;-1.85;100.00;98694.59;4930816;28;20233;-62
2023/03/02 00:06:47;;;;;;;37.13;18.40;;;;;;;-1.81;100.00;98691.84;4925381;28;20440;-62
2023/03/02 00:09:16;;;;;;;36.33;17.53;;;;;;;-1.85;100.00;98694.59;4932378;28;20231;-62
2023/03/02 00:11:42;;;;;;;34.67;17.90;;;;;;;-1.91;100.00;98694.88;4933291;28;20237;-62
2023/03/02 00:14:09;;;;;;;34.37;18.03;;;;;;;-1.90;100.00;98701.66;4935683;28;20226;-63
2023/03/02 00:16:35;;;;;;;38.60;17.70;;;;;;;-1.94;100.00;98695.88;4932381;28;20229;-63
2023/03/02 00:19:02;;;;;;;35.83;16.47;;;;;;;-1.87;100.00;98696.41;4941151;28;20232;-62
2023/03/02 00:21:30;;;;;;;38.17;17.90;;;;;;;-1.89;100.00;98691.38;4943783;28;20222;-62
2023/03/02 00:23:59;;;;;;;37.80;17.90;;;;;;;-1.94;100.00;98695.88;4950137;28;20261;-62
2023/03/02 00:26:27;;;;;;;32.93;16.47;;;;;;;-1.96;100.00;98695.09;4947237;28;20234;-63
2023/03/02 00:28:53;;;;;;;35.13;17.67;;;;;;;-1.96;100.00;98692.53;4949026;28;20692;-62
2023/03/02 00:31:20;;;;;;;36.27;17.90;;;;;;;-1.98;100.00;98694.34;4965158;28;20232;-62
2023/03/02 00:33:47;;;;;;;34.27;16.17;;;;;;;-1.97;100.00;98696.00;4947826;28;20252;-63
2023/03/02 00:36:17;;;;;;;38.70;17.27;;;;;;;-1.98;100.00;98686.66;4946488;28;20235;-63
2023/03/02 00:38:44;;;;;;;37.97;17.20;;;;;;;-2.05;100.00;98686.09;4965465;28;20232;-63
2023/03/02 00:41:11;;;;;;;36.83;18.17;;;;;;;-1.98;100.00;98694.34;4955125;28;20245;-62
2023/03/02 00:43:40;;;;;;;39.30;18.60;;;;;;;-2.04;100.00;98686.94;4939983;28;20294;-62
2023/03/02 00:46:10;;;;;;;37.97;17.37;;;;;;;-2.11;100.00;98684.66;4964526;28;20650;-62
2023/03/02 00:48:38;;;;;;;36.43;17.10;;;;;;;-2.14;100.00;98681.44;4948081;28;20224;-62
2023/03/02 00:51:05;;;;;;;38.27;17.50;;;;;;;-2.12;100.00;98682.19;4950974;28;20229;-62
2023/03/02 00:53:33;;;;;;;37.07;16.73;;;;;;;-2.13;100.00;98677.97;4949219;28;20231;-62
2023/03/02 00:55:59;;;;;;;41.37;18.67;;;;;;;-2.12;100.00;98675.34;4948358;28;21129;-62
2023/03/02 00:58:27;;;;;;;39.70;19.03;;;;;;;-2.09;100.00;98672.63;4965897;28;20252;-62
2023/03/02 01:00:57;;;;;;;41.07;17.80;;;;;;;-2.09;100.00;98675.19;4963830;28;20646;-62
2023/03/02 01:03:25;;;;;;;41.07;19.23;;;;;;;-2.06;100.00;98675.97;4947667;28;20353;-62
2023/03/02 01:05:55;;;;;;;38.27;18.13;;;;;;;-2.12;100.00;98671.97;4946494;28;20279;-62
2023/03/02 01:08:22;;;;;;;41.80;19.00;;;;;;;-2.13;100.00;98667.75;4953943;28;20227;-62
2023/03/02 01:10:48;;;;;;;42.67;18.73;;;;;;;-2.21;100.00;98668.06;4964580;28;20218;-62
2023/03/02 01:13:15;;;;;;;38.13;18.67;;;;;;;-2.22;100.00;98661.31;4950375;28;20239;-62
2023/03/02 01:15:42;;;;;;;42.53;18.23;;;;;;;-2.19;100.00;98662.91;4948706;28;20227;-62
2023/03/02 01:18:10;;;;;;;40.00;19.60;;;;;;;-2.16;100.00;98660.22;4944022;28;20222;-62
2023/03/02 01:20:36;;;;;;;36.10;17.97;;;;;;;-2.21;100.00;98652.72;4950626;28;20300;-62
2023/03/02 01:23:03;;;;;;;41.13;19.70;;;;;;;-2.11;100.00;98653.13;4949851;28;20238;-62
2023/03/02 01:25:30;;;;;;;41.03;19.33;;;;;;;-2.04;100.00;98651.13;4948843;28;20680;-62
2023/03/02 01:27:57;;;;;;;38.17;18.40;;;;;;;-2.09;100.00;98656.44;4957266;28;20293;-62
2023/03/02 01:30:23;;;;;;;43.60;19.07;;;;;;;-2.10;100.00;98655.63;4957316;28;20230;-62
2023/03/02 01:32:50;;;;;;;42.90;18.57;;;;;;;-2.08;100.00;98655.56;4954143;28;20246;-62
2023/03/02 01:35:18;;;;;;;37.00;18.53;;;;;;;-2.11;100.00;98648.88;4966043;28;20726;-62
2023/03/02 01:37:44;;;;;;;43.47;18.83;;;;;;;-2.15;100.00;98644.78;4965226;28;20242;-62
2023/03/02 01:40:13;;;;;;;39.83;18.37;;;;;;;-2.15;100.00;98642.22;4965668;28;20320;-62
2023/03/02 01:42:47;;;;;;;41.67;19.30;;;;;;;-2.16;100.00;98632.09;4959949;28;20886;-62
2023/03/02 01:45:51;;;;;;;35.40;17.53;;;;;;;-2.21;100.00;98636.56;4969706;28;20315;-62
2023/03/02 01:48:28;;;;;;;41.07;18.77;;;;;;;-2.34;100.00;98628.63;4970307;28;20234;-62
2023/03/02 01:50:57;;;;;;;40.17;17.97;;;;;;;-2.31;100.00;98625.91;4966801;28;20361;-62
2023/03/02 01:53:29;;;;;;;44.80;19.50;;;;;;;-2.31;100.00;98624.22;4966035;28;20241;-62
2023/03/02 01:55:57;;;;;;;44.33;19.03;;;;;;;-2.33;100.00;98625.16;4964413;28;20309;-62
2023/03/02 01:58:24;;;;;;;44.53;20.00;;;;;;;-2.41;100.00;98620.41;4950502;28;20252;-62
2023/03/02 02:00:54;;;;;;;41.40;19.00;;;;;;;-2.41;100.00;98616.09;4969813;28;20601;-62
2023/03/02 02:03:24;;;;;;;43.13;19.67;;;;;;;-2.47;100.00;98615.56;4964213;28;20220;-62
2023/03/02 02:06:05;;;;;;;41.13;19.57;;;;;;;-2.45;100.00;98616.31;4953969;28;20233;-62
2023/03/02 02:08:33;;;;;;;43.33;18.63;;;;;;;-2.54;100.00;98613.28;4940038;28;20230;-63
2023/03/02 02:11:00;;;;;;;39.00;17.77;;;;;;;-2.39;100.00;98610.94;4950965;28;20246;-63
2023/03/02 02:13:27;;;;;;;39.37;19.00;;;;;;;-2.45;100.00;98612.03;4949363;28;20226;-63
2023/03/02 02:15:53;;;;;;;44.43;19.37;;;;;;;-2.49;100.00;98609.69;4947713;28;20231;-63
2023/03/02 02:18:20;;;;;;;45.10;19.23;;;;;;;-2.55;100.00;98601.41;4942840;28;20241;-63
2023/03/02 02:20:48;;;;;;;42.00;19.07;;;;;;;-2.51;100.00;98591.84;4948816;28;20245;-63
2023/03/02 02:23:26;;;;;;;42.27;19.60;;;;;;;-2.59;100.00;98602.44;4946123;28;20250;-63
2023/03/02 02:26:03;;;;;;;42.03;19.67;;;;;;;-2.64;100.00;98601.81;4948473;28;20319;-63
2023/03/02 02:28:34;;;;;;;43.10;19.30;;;;;;;-2.59;100.00;98597.31;4945445;28;20219;-62
2023/03/02 02:31:07;;;;;;;38.30;19.63;;;;;;;-2.58;100.00;98595.56;4953374;28;20633;-62
2023/03/02 02:33:36;;;;;;;42.23;20.10;;;;;;;-2.53;100.00;98593.66;4954869;28;20226;-62
2023/03/02 02:36:07;;;;;;;41.90;19.40;;;;;;;-2.57;100.00;98595.53;4953024;28;20699;-62
2023/03/02 02:38:37;;;;;;;40.33;19.47;;;;;;;-2.63;100.00;98590.69;4951648;28;20273;-62
2023/03/02 02:41:07;;;;;;;41.90;20.10;;;;;;;-2.54;100.00;98592.84;4946872;28;20245;-62
2023/03/02 02:43:35;;;;;;;41.53;19.93;;;;;;;-2.64;100.00;98594.13;4962221;28;20223;-62
2023/03/02 02:46:02;;;;;;;46.53;20.30;;;;;;;-2.67;100.00;98590.00;4951527;28;20226;-62
2023/03/02 02:48:31;;;;;;;46.17;20.27;;;;;;;-2.68;100.00;98590.06;4949707;28;20226;-62
2023/03/02 02:51:01;;;;;;;46.77;20.90;;;;;;;-2.74;100.00;98588.63;4943142;28;20613;-62
2023/03/02 02:53:42;;;;;;;42.53;19.73;;;;;;;-2.78;100.00;98589.66;4948739;28;20333;-62
2023/03/02 02:56:12;;;;;;;45.93;20.63;;;;;;;-2.77;100.00;98591.31;4967934;28;20272;-62
2023/03/02 02:58:43;;;;;;;46.80;20.63;;;;;;;-2.71;100.00;98585.94;4967289;28;20245;-62
2023/03/02 03:01:13;;;;;;;42.17;20.07;;;;;;;-2.71;100.00;98593.59;4948281;28;20258;-62
2023/03/02 03:03:42;;;;;;;44.53;19.67;;;;;;;-2.74;100.00;98592.88;4945893;28;20241;-62
2023/03/02 03:06:18;;;;;;;42.50;20.87;;;;;;;-2.82;100.00;98591.50;4954256;28;20296;-62
2023/03/02 03:08:55;;;;;;;40.53;19.47;;;;;;;-2.78;100.00;98587.09;4944538;28;20700;-63
2023/03/02 03:11:32;;;;;;;48.83;20.67;;;;;;;-2.72;100.00;98588.53;4940982;28;20296;-63
2023/03/02 03:14:07;;;;;;;47.53;21.23;;;;;;;-2.73;100.00;98584.31;4951876;28;20664;-63
2023/03/02 03:16:36;;;;;;;48.13;21.43;;;;;;;-2.74;100.00;98585.22;4960307;28;20220;-63
2023/03/02 03:19:07;;;;;;;47.47;21.33;;;;;;;-2.71;100.00;98591.03;4952480;28;20590;-63
2023/03/02 03:21:35;;;;;;;47.20;21.53;;;;;;;-2.69;100.00;98598.63;4967234;28;20283;-63
2023/03/02 03:24:02;;;;;;;51.43;21.53;;;;;;;-2.74;100.00;98598.00;4966355;28;20260;-63
2023/03/02 03:26:31;;;;;;;46.60;21.13;;;;;;;-2.82;100.00;98594.06;4948742;28;20218;-63
2023/03/02 03:28:57;;;;;;;48.60;20.47;;;;;;;-2.74;100.00;98592.88;4951697;28;20278;-63
2023/03/02 03:31:25;;;;;;;48.20;20.97;;;;;;;-2.83;100.00;98592.41;4965715;28;20231;-63
2023/03/02 03:33:53;;;;;;;48.37;21.47;;;;;;;-2.82;100.00;98598.34;4965567;28;20235;-63
2023/03/02 03:36:21;;;;;;;45.50;21.77;;;;;;;-2.78;100.00;98594.75;4949234;28;20221;-63
2023/03/02 03:38:48;;;;;;;46.87;20.77;;;;;;;-2.77;100.00;98593.03;4945306;28;20795;-63
2023/03/02 03:41:15;;;;;;;45.00;20.73;;;;;;;-2.74;100.00;98593.72;4950051;28;20730;-63
2023/03/02 03:43:43;;;;;;;46.90;21.30;;;;;;;-2.82;100.00;98594.06;4948747;28;20241;-63
2023/03/02 03:46:11;;;;;;;44.13;21.10;;;;;;;-2.77;100.00;98593.88;4968023;28;20613;-63
2023/03/02 03:48:38;;;;;;;48.87;22.17;;;;;;;-2.80;100.00;98595.72;4965455;28;20218;-63
2023/03/02 03:51:05;;;;;;;46.47;21.33;;;;;;;-2.77;100.00;98590.47;4967993;28;20679;-63
2023/03/02 03:53:32;;;;;;;48.97;20.70;;;;;;;-2.76;100.00;98592.13;4947121;28;20688;-63
2023/03/02 03:56:02;;;;;;;48.10;21.33;;;;;;;-2.78;100.00;98592.22;4958304;28;20784;-63
2023/03/02 03:58:29;;;;;;;45.17;21.23;;;;;;;-2.79;100.00;98598.22;4944367;28;20226;-63
2023/03/02 04:00:58;;;;;;;45.77;21.47;;;;;;;-2.89;100.00;98592.66;4963053;28;20245;-63
2023/03/02 04:03:25;;;;;;;48.63;22.30;;;;;;;-2.88;100.00;98598.63;4964125;28;20285;-63
2023/03/02 04:05:53;;;;;;;47.10;21.93;;;;;;;-2.75;100.00;98597.19;4945703;28;20689;-63
2023/03/02 04:08:20;;;;;;;46.03;21.87;;;;;;;-2.72;100.00;98596.19;4969699;28;20595;-62
2023/03/02 04:10:46;;;;;;;44.30;22.30;;;;;;;-2.74;100.00;98601.41;4940364;28;20237;-62
2023/03/02 04:13:13;;;;;;;49.67;22.40;;;;;;;-2.75;100.00;98604.00;4965001;28;20240;-62
2023/03/02 04:15:41;;;;;;;50.17;22.60;;;;;;;-2.71;100.00;98602.97;4948191;28;20322;-63
2023/03/02 04:18:09;;;;;;;44.77;21.20;;;;;;;-2.76;100.00;98605.75;4952285;28;20224;-63
2023/03/02 04:20:36;;;;;;;49.10;23.10;;;;;;;-2.74;100.00;98609.06;4968635;28;21027;-62
2023/03/02 04:23:03;;;;;;;52.03;22.00;;;;;;;-2.78;100.00;98609.25;4967384;28;20245;-62
2023/03/02 04:25:30;;;;;;;52.47;22.73;;;;;;;-2.77;100.00;98609.19;4963463;28;20271;-62
2023/03/02 04:28:02;;;;;;;47.40;21.23;;;;;;;-2.67;100.00;98607.91;4952393;28;20782;-62
2023/03/02 04:33:12;;;;;;;47.63;21.27;;;;;;;-2.73;100.00;98610.72;4961571;28;20268;-62
2023/03/02 04:35:39;;;;;;;46.77;21.63;;;;;;;-2.76;100.00;98615.97;4946134;28;20239;-62
2023/03/02 04:38:06;;;;;;;48.20;20.73;;;;;;;-2.82;100.00;98626.44;4948543;28;20244;-62
2023/03/02 04:40:33;;;;;;;40.60;19.80;;;;;;;-2.79;100.00;98626.31;4936093;28;20233;-62
2023/03/02 04:42:59;;;;;;;49.27;21.70;;;;;;;-2.73;100.00;98627.75;4951382;28;20233;-63
2023/03/02 04:45:26;;;;;;;49.27;22.30;;;;;;;-2.81;100.00;98630.66;4962288;23;20330;-57
2023/03/02 04:47:52;;;;;;;47.90;21.50;;;;;;;-2.77;100.00;98629.63;4990835;28;20235;-58
2023/03/02 04:50:20;;;;;;;47.83;21.73;;;;;;;-2.77;100.00;98634.75;4991076;28;20239;-54
2023/03/02 04:52:48;;;;;;;42.63;19.90;;;;;;;-2.75;100.00;98624.44;4998735;28;20246;-56
2023/03/02 04:55:19;;;;;;;48.13;21.53;;;;;;;-2.82;100.00;98623.91;5001649;28;20298;-56
2023/03/02 04:57:46;;;;;;;67.93;31.97;;;;;;;-2.78;100.00;98622.88;5000935;28;20263;-55
2023/03/02 05:00:14;;;;;;;51.40;22.90;;;;;;;-2.80;100.00;98611.88;5003635;28;20288;-56
2023/03/02 05:02:41;;;;;;;49.33;22.57;;;;;;;-2.77;100.00;98616.88;5001111;28;20714;-56
2023/03/02 05:05:13;;;;;;;53.67;22.90;;;;;;;-2.68;100.00;98605.41;5006113;28;20262;-56
2023/03/02 05:07:40;;;;;;;55.03;23.67;;;;;;;-2.76;100.00;98604.91;5004137;28;20227;-56
2023/03/02 05:10:08;;;;;;;54.33;25.30;;;;;;;-2.73;100.00;98599.66;5006448;28;20281;-58
2023/03/02 05:12:53;;;;;;;53.00;24.17;;;;;;;-2.64;100.00;98589.03;5003863;28;20279;-58
2023/03/02 05:15:20;;;;;;;51.33;24.00;;;;;;;-2.28;100.00;98587.44;5006950;28;20222;-59
2023/03/02 05:17:46;;;;;;;52.37;24.27;;;;;;;-2.31;100.00;98597.78;5004599;28;20777;-57
2023/03/02 05:20:13;;;;;;;53.23;23.47;;;;;;;-2.31;100.00;98595.25;5005633;28;20718;-58
2023/03/02 05:22:41;;;;;;;52.03;22.90;;;;;;;-2.34;100.00;98597.94;5003827;28;20361;-58
2023/03/02 05:25:09;;;;;;;51.07;23.87;;;;;;;-2.37;100.00;98596.38;5006458;28;20232;-57
2023/03/02 05:27:36;;;;;;;54.83;23.87;;;;;;;-2.41;100.00;98594.84;5003328;28;20232;-58
2023/03/02 05:30:02;;;;;;;50.40;23.67;;;;;;;-2.43;100.00;98602.56;5005738;28;20247;-57
2023/03/02 05:32:29;;;;;;;56.83;23.77;;;;;;;-2.46;100.00;98601.88;5002894;28;20733;-57
2023/03/02 05:34:55;;;;;;;50.73;23.50;;;;;;;-2.49;100.00;98600.28;5005149;28;20723;-56
2023/03/02 05:37:22;;;;;;;55.63;25.33;;;;;;;-2.45;100.00;98606.09;5006144;28;20569;-58
2023/03/02 05:39:50;;;;;;;50.20;23.53;;;;;;;-2.37;100.00;98607.41;5004171;28;20240;-57
2023/03/02 05:42:19;;;;;;;75.07;35.47;;;;;;;-2.41;100.00;98607.63;5005938;28;20232;-58
2023/03/02 05:44:45;;;;;;;70.77;32.70;;;;;;;-2.47;100.00;98615.56;5004103;28;20235;-56
2023/03/02 05:47:12;;;;;;;58.43;27.60;;;;;;;-2.50;100.00;98611.41;5003422;28;20224;-57
2023/03/02 05:49:38;;;;;;;56.10;28.20;;;;;;;-2.52;100.00;98616.59;5002017;28;20230;-57
2023/03/02 05:52:05;;;;;;;66.35;32.63;;;;;;;-2.49;100.00;98622.47;5005940;28;20447;-55
2023/03/02 05:54:32;;;;;;;60.13;27.13;;;;;;;-2.57;100.00;98626.19;5003153;28;20220;-58
2023/03/02 05:57:00;;;;;;;49.63;23.67;;;;;;;-2.64;100.00;98627.34;5004866;28;20232;-57
2023/03/02 05:59:26;;;;;;;51.47;23.17;;;;;;;-2.65;100.00;98622.34;5004927;28;20226;-57
2023/03/02 06:01:57;;;;;;;46.77;22.70;;;;;;;-2.73;100.00;98622.66;5005311;28;20235;-58
2023/03/02 06:04:24;;;;;;;48.67;22.77;;;;;;;-2.76;100.00;98626.19;5006250;28;20232;-58
2023/03/02 06:06:50;;;;;;;48.20;21.23;;;;;;;-2.60;100.00;98626.34;5003583;28;20239;-57
2023/03/02 06:09:17;;;;;;;47.43;20.63;;;;;;;-2.62;100.00;98617.06;5005540;28;21041;-58
2023/03/02 06:11:43;;;;;;;46.80;20.87;;;;;;;-2.69;100.00;98621.63;5003465;28;20232;-57
2023/03/02 06:14:11;;;;;;;50.83;22.37;;;;;;;-2.70;100.00;98620.81;5004492;28;20224;-57
2023/03/02 06:16:38;;;;;;;47.57;21.63;;;;;;;-2.70;100.00;98622.53;5002215;28;20224;-58
2023/03/02 06:19:05;;;;;;;45.10;20.77;;;;;;;-2.74;100.00;98618.44;5005593;28;20280;-55
2023/03/02 06:21:31;;;;;;;51.23;22.73;;;;;;;-2.73;100.00;98626.06;5003598;28;20223;-58
2023/03/02 06:23:58;;;;;;;48.10;22.33;;;;;;;-2.66;100.00;98631.72;5005625;28;20858;-58
2023/03/02 06:26:24;;;;;;;50.63;21.10;;;;;;;-2.53;100.00;98627.72;5004262;28;20219;-58
2023/03/02 06:28:51;;;;;;;46.40;20.87;;;;;;;-2.56;100.00;98632.13;5003596;28;20239;-56
2023/03/02 06:31:19;;;;;;;47.37;21.10;;;;;;;-2.53;100.00;98635.38;5004726;28;20755;-55
2023/03/02 06:33:45;;;;;;;52.07;22.13;;;;;;;-2.48;100.00;98640.28;5003451;28;20227;-55
2023/03/02 06:36:13;;;;;;;42.43;20.50;;;;;;;-2.39;100.00;98644.16;5005414;28;20289;-55
2023/03/02 06:38:40;;;;;;;99.23;38.77;;;;;;;-2.33;100.00;98650.72;5002937;28;20243;-58
2023/03/02 06:41:06;;;;;;;121.93;41.23;;;;;;;-2.21;100.00;98650.19;5005211;28;20301;-58
2023/03/02 06:43:33;;;;;;;53.60;23.07;;;;;;;-2.10;100.00;98647.13;5002790;28;20282;-58
2023/03/02 06:46:00;;;;;;;65.43;28.60;;;;;;;-1.99;100.00;98652.56;5005411;28;20239;-57
2023/03/02 06:48:28;;;;;;;53.87;25.30;;;;;;;-1.98;100.00;98658.53;5002485;28;20229;-56
2023/03/02 06:50:55;;;;;;;63.07;27.23;;;;;;;-1.90;100.00;98659.00;5005272;28;20242;-58
2023/03/02 06:53:22;;;;;;;57.53;25.90;;;;;;;-1.84;100.00;98661.28;5005300;28;20228;-58
2023/03/02 06:55:49;;;;;;;49.07;22.93;;;;;;;-1.77;100.00;98661.00;5008603;28;20285;-57
2023/03/02 06:58:15;;;;;;;50.83;23.20;;;;;;;-1.74;100.00;98664.22;5002718;28;20819;-58
2023/03/02 07:00:42;;;;;;;42.90;20.63;;;;;;;-1.73;100.00;98668.44;5001278;28;20587;-55
2023/03/02 07:03:08;;;;;;;49.97;27.13;;;;;;;-1.59;100.00;98674.66;5002679;28;20442;-58
2023/03/02 07:05:37;;;;;;;47.63;23.73;;;;;;;-1.53;100.00;98669.25;5002597;28;20239;-56
2023/03/02 07:08:04;;;;;;;47.90;22.77;;;;;;;-1.42;100.00;98673.84;5005235;28;20262;-58
2023/03/02 07:10:32;;;;;;;52.20;24.80;;;;;;;-1.34;100.00;98674.28;5001535;28;20286;-57
2023/03/02 07:12:58;;;;;;;43.70;21.47;;;;;;;-1.27;100.00;98685.09;5004598;28;20244;-58
2023/03/02 07:15:25;;;;;;;48.57;20.90;;;;;;;-1.23;100.00;98682.28;5002610;28;20205;-57
2023/03/02 07:17:51;;;;;;;47.30;20.10;;;;;;;-1.15;100.00;98681.94;5003259;28;20239;-58
2023/03/02 07:20:19;;;;;;;43.53;21.27;;;;;;;-1.08;100.00;98685.00;5002990;28;20275;-57
2023/03/02 07:22:47;;;;;;;48.47;26.33;;;;;;;-0.88;100.00;98689.13;5001036;28;20442;-57
2023/03/02 07:25:14;;;;;;;40.97;20.63;;;;;;;-0.77;100.00;98683.47;5004873;28;20853;-58
2023/03/02 07:27:41;;;;;;;39.57;18.93;;;;;;;-0.65;100.00;98687.16;5001722;28;20647;-58
2023/03/02 07:30:09;;;;;;;43.80;20.17;;;;;;;-0.51;100.00;98684.69;5004205;28;20231;-55
2023/03/02 07:32:35;;;;;;;48.50;22.73;;;;;;;-0.33;100.00;98692.34;5001756;28;20282;-58
2023/03/02 07:35:02;;;;;;;47.77;22.63;;;;;;;-0.18;100.00;98688.16;5003590;28;20240;-58
2023/03/02 07:37:29;;;;;;;47.63;21.17;;;;;;;-0.02;100.00;98690.75;5001549;28;20247;-56
2023/03/02 07:39:56;;;;;;;45.60;20.73;;;;;;;0.08;100.00;98696.19;5005716;28;20231;-58
2023/03/02 07:42:23;;;;;;;42.30;20.70;;;;;;;0.21;100.00;98694.63;5004064;28;20228;-55
2023/03/02 07:44:55;;;;;;;41.23;18.97;;;;;;;0.33;100.00;98695.69;5001183;28;20676;-58
2023/03/02 07:47:22;;;;;;;42.03;20.43;;;;;;;0.42;100.00;98700.31;5004306;28;20255;-57
2023/03/02 07:49:48;;;;;;;40.63;19.73;;;;;;;0.51;100.00;98703.28;5001862;28;20650;-58
2023/03/02 07:52:15;;;;;;;38.90;18.50;;;;;;;0.65;100.00;98705.91;5004847;28;20292;-58
2023/03/02 07:54:42;;;;;;;37.83;17.83;;;;;;;0.80;100.00;98709.34;5002125;28;20224;-55
2023/03/02 07:57:12;;;;;;;39.80;19.40;;;;;;;0.92;100.00;98709.59;5004415;28;20240;-57
2023/03/02 07:59:39;;;;;;;41.80;20.20;;;;;;;0.99;100.00;98705.75;5000245;28;20224;-58
2023/03/02 08:02:05;;;;;;;39.93;21.50;;;;;;;1.10;100.00;98712.81;4994209;28;20256;-56
2023/03/02 08:04:34;;;;;;;42.20;19.93;;;;;;;1.16;100.00;98707.34;4999409;28;20283;-55
2023/03/02 08:07:01;;;;;;;52.90;26.80;;;;;;;1.22;100.00;98708.72;5004266;28;20290;-56
2023/03/02 08:09:27;;;;;;;53.03;27.73;;;;;;;1.17;98.39;98712.41;5000192;28;20222;-57
2023/03/02 08:11:54;;;;;;;55.33;27.77;;;;;;;1.22;97.42;98719.03;5004000;28;20244;-57
2023/03/02 08:14:22;;;;;;;51.40;25.93;;;;;;;1.30;97.69;98722.78;5004255;28;20220;-57
2023/03/02 08:16:51;;;;;;;55.07;27.80;;;;;;;1.39;96.99;98723.16;5001432;28;20314;-57
2023/03/02 08:19:17;;;;;;;251.27;93.07;;;;;;;1.32;92.73;98727.84;5004434;28;20228;-57
2023/03/02 08:21:45;;;;;;;128.60;54.07;;;;;;;1.30;92.82;98733.06;5001896;28;20239;-56
2023/03/02 08:24:12;;;;;;;78.20;37.37;;;;;;;1.45;93.17;98741.66;5004048;28;20232;-56
2023/03/02 08:26:39;;;;;;;71.20;34.43;;;;;;;1.56;92.11;98735.06;5000401;28;20212;-58
2023/03/02 08:29:06;;;;;;;64.70;32.23;;;;;;;1.75;91.90;98743.31;5003361;28;20294;-58
2023/03/02 08:31:34;;;;;;;51.93;27.10;;;;;;;1.77;89.26;98746.63;5001336;28;20232;-58
2023/03/02 08:34:01;;;;;;;51.27;25.93;;;;;;;1.75;88.76;98747.66;5001987;28;20684;-58
2023/03/02 08:36:27;;;;;;;51.33;25.10;;;;;;;1.82;86.70;98751.50;4999550;28;20636;-57
2023/03/02 08:38:54;;;;;;;48.90;24.97;;;;;;;1.75;87.36;98757.94;5007029;28;20232;-55
2023/03/02 08:41:23;;;;;;;46.93;24.73;;;;;;;1.63;88.30;98754.34;5007562;28;20232;-57
2023/03/02 08:43:52;;;;;;;48.93;23.93;;;;;;;1.67;87.63;98757.56;5004419;28;20236;-58
2023/03/02 08:46:20;;;;;;;44.60;23.70;;;;;;;1.86;86.22;98755.56;5006791;28;20232;-56
2023/03/02 08:48:48;;;;;;;49.27;25.43;;;;;;;1.76;85.58;98752.69;5005136;28;20291;-56
2023/03/02 08:51:17;;;;;;;48.57;25.03;;;;;;;1.74;87.34;98753.72;5007845;28;20584;-57
2023/03/02 08:53:46;;;;;;;53.13;25.30;;;;;;;1.86;87.34;98755.56;5003355;28;20224;-58
2023/03/02 08:56:18;;;;;;;47.47;24.77;;;;;;;1.96;86.22;98755.81;5006642;28;20232;-57
2023/03/02 08:58:47;;;;;;;50.23;25.00;;;;;;;2.10;86.64;98755.00;5005448;28;20675;-56
2023/03/02 09:01:15;;;;;;;49.53;25.27;;;;;;;2.26;85.76;98754.03;5001835;28;20651;-57
2023/03/02 09:03:42;;;;;;;48.83;24.33;;;;;;;2.43;85.78;98753.00;5002708;28;20262;-57
2023/03/02 09:06:10;;;;;;;53.33;26.13;;;;;;;2.65;83.54;98752.47;5006636;28;20235;-58
2023/03/02 09:08:36;;;;;;;50.00;25.27;;;;;;;2.93;82.51;98746.38;5004759;28;20254;-57
2023/03/02 09:11:03;;;;;;;52.33;27.03;;;;;;;3.09;81.74;98753.94;5007318;28;20290;-56
2023/03/02 09:13:30;;;;;;;55.13;28.37;;;;;;;3.22;79.55;98751.38;5004208;28;20645;-57
2023/03/02 09:15:57;;;;;;;61.67;31.10;;;;;;;3.32;80.49;98758.50;5006525;28;20285;-57
2023/03/02 09:18:24;;;;;;;62.67;32.30;;;;;;;3.50;79.65;98748.72;5007009;28;20220;-57
2023/03/02 09:20:51;;;;;;;61.20;29.33;;;;;;;3.62;78.05;98755.63;5004166;28;20235;-56
2023/03/02 09:23:19;;;;;;;54.73;28.50;;;;;;;3.63;78.08;98752.13;5005905;28;20227;-58
2023/03/02 09:25:47;;;;;;;52.40;26.53;;;;;;;3.88;76.69;98770.28;5004499;28;20247;-57
2023/03/02 09:28:15;;;;;;;57.53;28.40;;;;;;;3.71;75.66;98768.84;5007098;28;20240;-57
2023/03/02 09:30:42;;;;;;;63.33;32.17;;;;;;;3.53;77.13;98769.16;5004219;28;20262;-57
2023/03/02 09:33:08;;;;;;;55.57;26.17;;;;;;;3.82;77.21;98768.97;5006193;28;20229;-58
2023/03/02 09:35:38;;;;;;;53.83;26.63;;;;;;;3.98;75.81;98769.56;5002377;28;20227;-56
2023/03/02 09:38:04;;;;;;;61.97;26.67;;;;;;;4.19;75.52;98761.28;5006616;28;20240;-55
2023/03/02 09:40:38;;;;;;;47.40;26.77;;;;;;;4.37;74.20;98763.47;5003067;28;20230;-57
2023/03/02 09:43:20;;;;;;;48.43;25.43;;;;;;;4.51;74.65;98762.53;5006589;28;20229;-56
2023/03/02 09:45:57;;;;;;;46.13;23.83;;;;;;;4.83;73.83;98765.38;5004856;28;20232;-57
2023/03/02 09:48:35;;;;;;;42.27;23.30;;;;;;;4.90;73.71;98767.53;5007080;28;20884;-56
2023/03/02 09:51:15;;;;;;;46.10;22.57;;;;;;;5.20;75.16;98769.63;5003750;28;20236;-53
2023/03/02 09:53:47;;;;;;;45.70;26.33;;;;;;;5.38;72.86;98772.63;5001106;28;20451;-55
2023/03/02 09:56:18;;;;;;;38.67;22.20;;;;;;;5.47;72.15;98774.53;5005269;28;20248;-53
2023/03/02 09:58:51;;;;;;;43.70;24.67;;;;;;;5.47;70.51;98777.09;5002224;28;20232;-58
2023/03/02 10:01:33;;;;;;;45.93;23.37;;;;;;;5.57;69.12;98779.00;5005722;28;20228;-54
2023/03/02 10:04:09;;;;;;;48.90;25.33;;;;;;;5.46;69.39;98778.03;4996940;28;20248;-56
2023/03/02 10:06:36;;;;;;;45.37;23.80;;;;;;;5.61;69.72;98780.44;5002628;28;20216;-56
2023/03/02 10:09:02;;;;;;;45.27;23.43;;;;;;;5.78;68.06;98771.41;5005260;28;20240;-57
2023/03/02 10:11:39;;;;;;;44.50;21.97;;;;;;;5.93;65.41;98779.75;5003818;28;20220;-56
2023/03/02 10:14:13;;;;;;;42.30;23.67;;;;;;;5.85;65.86;98782.94;5003874;28;20569;-58
2023/03/02 10:16:47;;;;;;;45.20;23.47;;;;;;;5.81;66.69;98780.69;5017367;28;20650;-57
2023/03/02 10:19:23;;;;;;;44.10;22.63;;;;;;;5.85;66.42;98772.56;5004890;28;20231;-57
2023/03/02 10:21:58;;;;;;;44.87;23.53;;;;;;;5.92;67.75;98783.31;5001178;28;20298;-57
2023/03/02 10:24:31;;;;;;;44.40;25.10;;;;;;;5.82;65.56;98779.75;5005115;28;20311;-57
2023/03/02 10:27:05;;;;;;;48.40;23.27;;;;;;;5.98;65.72;98785.41;5003261;28;20282;-58
2023/03/02 10:29:46;;;;;;;47.37;23.90;;;;;;;5.97;65.44;98782.94;5003824;28;20240;-57
2023/03/02 10:32:22;;;;;;;44.47;23.63;;;;;;;5.99;64.97;98791.41;5005758;28;20236;-57
2023/03/02 10:34:49;;;;;;;41.53;23.37;;;;;;;5.79;65.49;98798.97;5001545;28;20232;-56
2023/03/02 10:37:21;;;;;;;43.30;22.80;;;;;;;5.72;65.85;98798.59;5003959;28;20676;-57
2023/03/02 10:39:48;;;;;;;42.10;21.47;;;;;;;5.56;67.56;98798.91;5001206;28;21060;-58
2023/03/02 10:42:20;;;;;;;43.93;22.30;;;;;;;5.25;67.95;98793.41;5004487;28;20224;-57
2023/03/02 10:44:52;;;;;;;45.60;22.90;;;;;;;5.75;67.32;98800.13;5002034;28;20282;-57
2023/03/02 10:47:22;;;;;;;49.73;24.50;;;;;;;5.91;65.48;98802.38;5004472;28;20620;-57
2023/03/02 10:49:50;;;;;;;47.73;24.80;;;;;;;6.05;65.48;98797.00;5001673;28;20286;-56
2023/03/02 10:52:20;;;;;;;45.23;25.87;;;;;;;5.97;66.45;98794.13;5005001;28;20289;-58
2023/03/02 10:54:47;;;;;;;45.37;25.57;;;;;;;6.15;65.06;98798.88;5002661;28;20239;-56
2023/03/02 10:57:30;;;;;;;44.83;25.53;;;;;;;6.20;64.51;98799.34;5005340;28;20224;-58
2023/03/02 11:00:03;;;;;;;49.77;25.33;;;;;;;6.09;65.56;98792.38;5002826;28;21132;-57
2023/03/02 11:02:33;;;;;;;48.67;26.40;;;;;;;6.53;64.36;98809.81;5000575;28;20232;-57
2023/03/02 11:05:37;;;;;;;45.10;25.33;;;;;;;6.68;64.93;98802.56;5002984;28;20224;-57
2023/03/02 11:08:06;;;;;;;46.27;24.90;;;;;;;6.83;63.93;98805.75;5002383;28;20228;-57
2023/03/02 11:10:35;;;;;;;47.80;25.50;;;;;;;6.80;63.06;98806.78;5002798;28;20738;-58
2023/03/02 11:13:15;;;;;;;53.90;24.73;;;;;;;6.84;64.06;98804.78;5005184;28;20241;-58
2023/03/02 11:15:46;;;;;;;45.67;25.17;;;;;;;7.14;63.10;98804.09;5001300;28;20620;-58
2023/03/02 11:18:23;;;;;;;41.43;24.03;;;;;;;6.94;62.35;98800.50;5003909;28;20236;-57
2023/03/02 11:20:52;;;;;;;43.23;23.40;;;;;;;7.34;61.56;98797.25;5001794;28;20627;-57
2023/03/02 11:23:26;;;;;;;44.50;23.30;;;;;;;7.29;61.01;98790.81;5002595;28;20237;-57
2023/03/02 11:25:56;;;;;;;45.03;24.07;;;;;;;6.68;63.54;98795.63;5000512;28;20241;-58